KCWA/CWA METAR and TAF weather

Enter ICAO airport designator
Station Type Date Time Source
KCWA METAR 2019/02/20 06:55 UTC NOAA

KCWA 200655Z AUTO 09004KT 10SM BKN100 M10/M12 A3026 RMK AO2


Station Type Date Time Source
KCWA Decoded METAR 2019/02/20 06:55 UTC NOAA

Mosinee / Central Wisconsin, WI, United States (KCWA) 44-47N 089-40W
Feb 20, 2019 - 01:55 AM EST / 2019.02.20 0655 UTC
Wind: from the E (090 degrees) at 5 MPH (4 KT):0
Visibility: 10 mile(s):0
Sky conditions: mostly cloudy
Temperature: 14 F (-10 C)
Windchill: 6 F (-14 C):1
Dew Point: 10 F (-12 C)
Relative Humidity: 85%
Pressure (altimeter): 30.26 in. Hg (1024 hPa)
ob: KCWA 200655Z AUTO 09004KT 10SM BKN100 M10/M12 A3026 RMK AO2
cycle: 7

Station Type Date Time Source
KCWA TAF 2019/02/20 06:22 UTC NOAA

TAF KCWA 200520Z 2006/2106 10005KT P6SM BKN100
FM201100 10005KT P6SM -SN OVC050
FM201200 10008KT 3SM -SN BKN025 OVC040
FM201300 10010KT 1 1/2SM -SN OVC015
FM201500 10013G19KT 1SM -SN OVC008 WS020/12040KT
TEMPO 2015/2019 1/2SM SN
FM202200 11008KT 1SM -SN OVC007
FM210200 25007KT 3SM -SN OVC010
FM210400 27011G18KT P6SM OVC018
AMD LTD TO CLD VIS AND WIND TIL 201100


Example: see airport list